Time;durP1;ratioP1;P1;durP2;ratioP2;P2;SDS_P1;SDS_P2;PMS_P1;PMS_P2;Temp;Humidity;BMP_temperature;BMP_pressure;BME280_temperature;BME280_humidity;BME280_pressure;Samples;Min_cycle;Max_cycle;Signal;HPM_P1;HPM_P2
2022/11/15 00:00:33;;;;;;;82.63;42.67;;;;;;;3.99;89.45;100162.75;5035160;28;20112;-70
2022/11/15 00:02:59;;;;;;;66.63;37.10;;;;;;;3.88;90.22;100152.75;5053335;28;20151;-70
2022/11/15 00:05:25;;;;;;;70.68;37.47;;;;;;;3.82;90.51;100159.34;5053621;28;20107;-69
2022/11/15 00:07:50;;;;;;;71.18;37.25;;;;;;;3.81;90.50;100158.53;5053892;28;20064;-70
2022/11/15 00:10:16;;;;;;;78.63;39.70;;;;;;;3.73;91.42;100150.75;5035514;28;20096;-70
2022/11/15 00:12:41;;;;;;;73.32;39.88;;;;;;;3.63;92.31;100149.63;5035696;28;20086;-70
2022/11/15 00:15:07;;;;;;;76.10;38.60;;;;;;;3.63;92.18;100151.56;5054133;28;20025;-70
2022/11/15 00:17:33;;;;;;;74.10;38.58;;;;;;;3.52;92.37;100156.22;5054032;28;20025;-70
2022/11/15 00:19:58;;;;;;;76.85;40.78;;;;;;;3.43;93.24;100152.31;5054225;28;20017;-70
2022/11/15 00:22:24;;;;;;;84.70;41.53;;;;;;;3.39;94.07;100157.56;5052782;28;20033;-70
2022/11/15 00:24:49;;;;;;;89.28;44.63;;;;;;;3.37;94.57;100149.53;5053163;28;20108;-70
2022/11/15 00:27:15;;;;;;;87.85;43.53;;;;;;;3.41;93.72;100154.50;5035689;28;20021;-70
2022/11/15 00:29:43;;;;;;;82.75;41.78;;;;;;;3.45;93.76;100150.94;5053683;28;20033;-70
2022/11/15 00:32:11;;;;;;;79.15;39.13;;;;;;;3.55;93.73;100155.66;5041980;28;20148;-70
2022/11/15 00:34:36;;;;;;;71.07;38.28;;;;;;;3.66;93.29;100148.25;5016325;28;20059;-70
2022/11/15 00:37:02;;;;;;;78.30;41.00;;;;;;;3.70;93.27;100140.25;5033950;28;20053;-70
2022/11/15 00:39:28;;;;;;;72.85;38.42;;;;;;;3.75;92.02;100137.47;5027294;28;20029;-70
2022/11/15 00:41:53;;;;;;;81.03;39.45;;;;;;;3.79;91.80;100144.97;5053226;28;20021;-70
2022/11/15 00:44:18;;;;;;;69.85;37.33;;;;;;;3.81;91.73;100133.63;5034932;28;20017;-70
2022/11/15 00:46:44;;;;;;;68.00;34.00;;;;;;;3.71;91.81;100128.88;5034512;28;20040;-70
2022/11/15 00:49:09;;;;;;;63.03;35.22;;;;;;;3.68;91.18;100131.38;5053096;28;20037;-70
2022/11/15 00:51:35;;;;;;;66.68;35.60;;;;;;;3.80;91.28;100129.19;5052462;28;20048;-69
2022/11/15 00:54:00;;;;;;;64.88;33.78;;;;;;;3.74;91.43;100125.59;5033412;28;20547;-70
2022/11/15 00:56:26;;;;;;;59.75;35.47;;;;;;;3.79;91.75;100128.38;5050767;28;20025;-70
2022/11/15 00:58:52;;;;;;;70.40;35.78;;;;;;;3.76;91.83;100128.06;5032697;28;20052;-70
2022/11/15 01:01:18;;;;;;;61.10;33.85;;;;;;;3.88;92.15;100133.38;5052382;28;20052;-70
2022/11/15 01:03:43;;;;;;;64.20;34.22;;;;;;;3.85;91.63;100131.97;5050612;28;20045;-70
2022/11/15 01:06:09;;;;;;;61.20;32.92;;;;;;;3.82;91.70;100132.53;5052850;28;20483;-70
2022/11/15 01:08:35;;;;;;;68.15;35.08;;;;;;;3.96;90.94;100132.00;5051984;28;20025;-70
2022/11/15 01:11:03;;;;;;;74.93;36.55;;;;;;;3.96;90.81;100126.47;5052280;28;20025;-70
2022/11/15 01:13:33;;;;;;;65.68;32.05;;;;;;;4.01;91.16;100124.53;5033870;28;20017;-70
2022/11/15 01:16:04;;;;;;;62.53;33.67;;;;;;;4.14;90.76;100134.22;5050808;28;20375;-70
2022/11/15 01:18:30;;;;;;;71.05;35.78;;;;;;;4.19;90.83;100125.09;5033686;28;20028;-70
2022/11/15 01:20:55;;;;;;;63.40;33.83;;;;;;;4.34;90.51;100124.25;5052008;28;20025;-70
2022/11/15 01:23:21;;;;;;;64.45;34.28;;;;;;;4.49;91.36;100117.91;5033101;28;20025;-70
2022/11/15 01:25:46;;;;;;;67.18;35.08;;;;;;;4.63;90.34;100121.75;5051111;28;20032;-70
2022/11/15 01:28:12;;;;;;;67.53;35.00;;;;;;;4.78;89.66;100114.50;5049431;28;20059;-69
2022/11/15 01:30:37;;;;;;;60.40;32.50;;;;;;;4.94;89.77;100120.84;5050694;28;20025;-70
2022/11/15 01:33:03;;;;;;;57.60;32.70;;;;;;;4.98;88.56;100119.16;5032802;28;20082;-70
2022/11/15 01:35:28;;;;;;;63.95;34.22;;;;;;;5.05;88.15;100118.88;5051759;28;20021;-70
2022/11/15 01:37:53;;;;;;;60.30;31.92;;;;;;;5.06;87.41;100115.81;5048501;28;20036;-70
2022/11/15 01:40:19;;;;;;;58.88;33.10;;;;;;;5.16;87.35;100126.06;5032096;28;20028;-70
2022/11/15 01:42:44;;;;;;;62.30;31.40;;;;;;;5.22;87.25;100121.31;5033177;28;20017;-70
2022/11/15 01:45:16;;;;;;;59.60;33.42;;;;;;;5.28;87.10;100117.41;5050229;28;20064;-70
2022/11/15 01:47:51;;;;;;;60.70;31.58;;;;;;;5.32;86.41;100112.13;5051056;28;20032;-70
2022/11/15 01:50:21;;;;;;;59.75;32.70;;;;;;;5.39;86.91;100123.75;5032801;28;20036;-70
2022/11/15 01:52:47;;;;;;;70.57;37.38;;;;;;;5.39;86.65;100118.19;5033687;28;20021;-70
2022/11/15 01:55:18;;;;;;;66.35;35.17;;;;;;;5.37;86.29;100119.59;5050694;28;20021;-70
2022/11/15 01:57:47;;;;;;;73.75;34.65;;;;;;;5.37;86.36;100123.19;5051384;28;20111;-69
2022/11/15 02:00:13;;;;;;;64.30;31.20;;;;;;;5.32;85.72;100117.69;5051735;28;20025;-70
2022/11/15 02:02:39;;;;;;;53.30;29.98;;;;;;;5.31;85.05;100124.34;5033461;28;20029;-70
2022/11/15 02:05:06;;;;;;;60.25;31.10;;;;;;;5.38;85.75;100122.09;5050346;28;20079;-70
2022/11/15 02:07:32;;;;;;;57.75;31.33;;;;;;;5.40;85.08;100122.63;5050771;28;20032;-70
2022/11/15 02:10:05;;;;;;;58.45;30.27;;;;;;;5.40;85.21;100124.59;5050166;28;20032;-70
2022/11/15 02:12:30;;;;;;;50.13;27.65;;;;;;;5.42;85.39;100122.34;5038023;28;20035;-70
2022/11/15 02:14:56;;;;;;;50.10;27.08;;;;;;;5.41;85.22;100113.19;5032730;28;20021;-71
2022/11/15 02:17:32;;;;;;;50.65;26.60;;;;;;;5.46;84.46;100115.09;5051735;28;20110;-70
2022/11/15 02:20:00;;;;;;;47.97;25.77;;;;;;;5.53;84.33;100117.56;5051637;28;20031;-70
2022/11/15 02:23:23;;;;;;;60.63;27.55;;;;;;;5.55;84.01;100120.88;5050255;28;20032;-69
2022/11/15 02:26:13;;;;;;;50.00;28.52;;;;;;;5.52;84.24;100119.53;4935465;29;20027;-70
2022/11/15 02:28:44;;;;;;;46.05;26.13;;;;;;;5.55;84.33;100112.56;4946422;29;20030;-70
2022/11/15 02:31:25;;;;;;;49.25;26.73;;;;;;;5.57;83.80;100116.72;5014961;28;20415;-70
2022/11/15 02:34:11;;;;;;;53.00;27.33;;;;;;;5.61;83.59;100114.22;5033689;28;20025;-71
2022/11/15 02:36:49;;;;;;;48.97;27.85;;;;;;;5.59;83.86;100106.16;5046182;28;20045;-70
2022/11/15 02:39:41;;;;;;;50.58;27.30;;;;;;;5.65;83.94;100106.16;5040389;28;20028;-70
2022/11/15 02:45:09;;;;;;;47.63;26.98;;;;;;;5.72;83.72;100109.41;5047432;28;20523;-70
2022/11/15 02:47:43;;;;;;;57.67;29.10;;;;;;;5.72;83.71;100115.81;5047057;28;20389;-71
2022/11/15 02:50:12;;;;;;;44.38;26.55;;;;;;;5.68;83.92;100109.19;5051032;28;20068;-70
2022/11/15 02:52:37;;;;;;;48.83;27.30;;;;;;;5.62;84.23;100108.38;5050356;28;20024;-69
2022/11/15 02:55:03;;;;;;;47.20;28.17;;;;;;;5.59;84.13;100100.59;5032423;28;20472;-70
2022/11/15 02:57:44;;;;;;;50.90;27.98;;;;;;;5.60;84.04;100105.03;5051504;28;20025;-71
2022/11/15 03:00:11;;;;;;;;;;;;;;;5.62;84.12;100104.75;5030528;28;20067;-70
2022/11/15 03:03:14;;;;;;;46.00;26.17;;;;;;;5.69;83.96;100105.28;5053835;28;19919;-70
2022/11/15 03:06:06;;;;;;;47.75;26.05;;;;;;;5.60;84.57;100107.81;5035852;28;20021;-69
2022/11/15 03:08:44;;;;;;;51.45;28.77;;;;;;;5.54;84.33;100102.56;5020502;28;20057;-71
2022/11/15 03:11:12;;;;;;;46.35;27.88;;;;;;;5.48;84.82;100102.63;5048225;28;20017;-71
2022/11/15 03:14:05;;;;;;;51.28;28.92;;;;;;;5.54;84.57;100097.88;5054944;28;20122;-71
2022/11/15 03:16:33;;;;;;;51.35;27.92;;;;;;;5.61;84.48;100103.09;5053696;28;20065;-71
2022/11/15 03:19:07;;;;;;;43.03;25.90;;;;;;;5.67;83.66;100095.59;5054111;28;20032;-71
2022/11/15 03:21:34;;;;;;;51.50;26.70;;;;;;;5.69;83.40;100102.50;5037166;28;20032;-71
2022/11/15 03:24:05;;;;;;;48.60;28.10;;;;;;;5.66;83.08;100103.06;5054278;28;20025;-70
2022/11/15 03:26:31;;;;;;;;;;;;;;;5.64;83.46;100104.50;5035766;28;20025;-71
2022/11/15 03:29:03;;;;;;;47.08;27.00;;;;;;;5.62;83.05;100094.50;5036385;28;20260;-71
2022/11/15 03:31:46;;;;;;;55.55;31.85;;;;;;;5.52;83.20;100093.72;5036774;28;20534;-71
2022/11/15 03:34:23;;;;;;;68.90;30.75;;;;;;;5.38;84.25;100094.34;5053579;28;20037;-70
2022/11/15 03:36:51;;;;;;;62.85;31.58;;;;;;;5.31;84.89;100091.06;5052450;28;20021;-69
2022/11/15 03:39:16;;;;;;;63.13;31.67;;;;;;;5.41;84.71;100081.84;5053382;28;20033;-71
2022/11/15 03:42:22;;;;;;;67.05;31.58;;;;;;;5.46;84.45;100088.22;5035969;28;20028;-70
2022/11/15 03:44:56;;;;;;;64.68;30.15;;;;;;;5.51;84.01;100080.97;5050498;28;20059;-70
2022/11/15 03:47:48;;;;;;;60.45;28.75;;;;;;;5.55;83.51;100079.25;5054385;28;20032;-71
2022/11/15 03:50:17;;;;;;;48.78;26.65;;;;;;;5.55;82.65;100071.78;5037322;28;20474;-71
2022/11/15 03:52:46;;;;;;;49.42;27.90;;;;;;;5.56;83.31;100078.16;5036714;28;20471;-71
2022/11/15 03:55:15;;;;;;;51.15;29.42;;;;;;;5.52;83.44;100068.75;5053661;28;20047;-70
2022/11/15 03:57:40;;;;;;;55.40;30.13;;;;;;;5.52;83.30;100058.47;5052475;28;20039;-71
2022/11/15 04:00:06;;;;;;;59.40;31.85;;;;;;;5.53;83.14;100068.47;5053458;28;20479;-70
2022/11/15 04:02:32;;;;;;;57.22;31.20;;;;;;;5.47;83.27;100059.34;5053620;28;20043;-71
2022/11/15 04:04:57;;;;;;;58.92;33.30;;;;;;;5.48;82.58;100061.00;5036165;28;20024;-71
2022/11/15 04:07:22;;;;;;;63.80;36.70;;;;;;;5.46;82.63;100054.06;5034521;28;20040;-71
2022/11/15 04:10:03;;;;;;;63.75;37.17;;;;;;;5.42;82.78;100056.56;5051620;28;20056;-70
2022/11/15 04:12:42;;;;;;;61.75;36.58;;;;;;;5.44;82.77;100059.06;5049793;28;20598;-70
2022/11/15 04:15:10;;;;;;;54.58;32.33;;;;;;;5.29;83.53;100054.44;5036007;28;20112;-71
2022/11/15 04:17:41;;;;;;;62.03;36.65;;;;;;;5.34;83.62;100048.88;5053328;28;20055;-70
2022/11/15 04:25:54;;;;;;;61.50;33.38;;;;;;;5.14;83.65;100058.13;5053462;28;20103;-70
2022/11/15 04:28:20;;;;;;;68.35;35.25;;;;;;;4.97;84.06;100044.63;5053234;28;20419;-71
2022/11/15 04:30:46;;;;;;;57.97;32.90;;;;;;;5.01;84.27;100054.00;5049750;28;20028;-71
2022/11/15 04:33:11;;;;;;;57.70;32.40;;;;;;;4.99;84.43;100054.28;5049561;28;20032;-70
2022/11/15 04:35:37;;;;;;;60.13;32.85;;;;;;;4.74;84.76;100046.91;5052442;28;20021;-70
2022/11/15 04:38:04;;;;;;;62.28;34.80;;;;;;;4.68;86.21;100042.47;5033756;28;20021;-71
2022/11/15 04:40:30;;;;;;;69.93;34.67;;;;;;;4.64;86.37;100042.19;5052645;28;20490;-71
2022/11/15 04:42:55;;;;;;;74.95;35.25;;;;;;;4.73;86.64;100036.94;5048829;28;20029;-70
2022/11/15 04:45:21;;;;;;;64.43;34.22;;;;;;;4.70;86.01;100043.00;5052330;28;20075;-71
2022/11/15 04:47:47;;;;;;;56.28;34.30;;;;;;;4.53;86.78;100044.19;5052330;28;20025;-71
2022/11/15 04:50:13;;;;;;;71.60;39.33;;;;;;;4.53;87.16;100041.41;5052676;28;20429;-71
2022/11/15 04:52:44;;;;;;;70.00;40.10;;;;;;;4.55;87.31;100033.63;5052166;28;20087;-70
2022/11/15 04:55:12;;;;;;;72.28;40.22;;;;;;;4.63;86.43;100035.00;5050818;28;20026;-71
2022/11/15 04:57:38;;;;;;;64.35;35.22;;;;;;;4.70;86.68;100034.69;5051840;28;20495;-71
2022/11/15 05:00:09;;;;;;;66.63;35.35;;;;;;;4.72;86.50;100035.28;5034128;28;20059;-70
2022/11/15 05:05:19;;;;;;;66.57;34.53;;;;;;;4.80;84.97;100034.69;5052444;28;20032;-71
2022/11/15 05:07:44;;;;;;;87.28;45.05;;;;;;;4.79;84.46;100038.56;5028587;28;20411;-70
2022/11/15 05:10:10;;;;;;;78.43;40.20;;;;;;;4.87;84.28;100042.69;5051884;28;20126;-70
2022/11/15 05:12:36;;;;;;;84.82;43.65;;;;;;;4.64;84.38;100034.72;5051918;28;20029;-70
2022/11/15 05:15:02;;;;;;;96.00;42.85;;;;;;;4.66;84.13;100031.69;5051923;28;20450;-71
2022/11/15 05:17:28;;;;;;;107.10;60.88;;;;;;;4.61;84.64;100034.47;5050997;28;20427;-69
2022/11/15 05:19:53;;;;;;;146.23;89.22;;;;;;;4.49;86.11;100029.25;5051213;28;20038;-71
2022/11/15 05:22:19;;;;;;;159.30;87.03;;;;;;;4.63;86.30;100035.00;5034202;28;20032;-71
2022/11/15 05:24:45;;;;;;;127.53;77.93;;;;;;;4.69;86.28;100038.59;5052437;28;20518;-69
2022/11/15 05:27:10;;;;;;;124.30;72.18;;;;;;;4.64;85.54;100037.50;5049822;28;20025;-69
2022/11/15 05:29:35;;;;;;;131.93;76.80;;;;;;;4.69;85.81;100039.44;5051611;28;20464;-70
2022/11/15 05:32:04;;;;;;;134.95;76.55;;;;;;;4.63;85.87;100030.31;5050665;28;20483;-70
2022/11/15 05:34:30;;;;;;;156.07;70.25;;;;;;;4.71;85.96;100041.94;5032060;28;20049;-69
2022/11/15 05:36:56;;;;;;;118.22;65.00;;;;;;;4.67;86.10;100043.59;5050635;28;20029;-73
2022/11/15 05:39:21;;;;;;;120.22;59.25;;;;;;;4.74;86.66;100046.91;5029950;28;20479;-71
2022/11/15 05:41:53;;;;;;;102.13;54.40;;;;;;;4.78;85.97;100040.53;5051200;28;20032;-68
2022/11/15 05:44:22;;;;;;;93.65;49.53;;;;;;;4.82;85.89;100048.25;5051162;28;20114;-72
2022/11/15 05:46:50;;;;;;;91.40;51.03;;;;;;;4.83;84.88;100047.16;5048704;28;20176;-72
2022/11/15 05:49:20;;;;;;;81.85;47.28;;;;;;;4.82;85.07;100040.75;5031839;28;20581;-71
2022/11/15 05:51:47;;;;;;;113.23;53.77;;;;;;;4.70;85.66;100043.00;5047270;28;20037;-71
2022/11/15 05:54:13;;;;;;;158.20;78.72;;;;;;;4.67;85.26;100041.66;5050960;28;20510;-70
2022/11/15 05:56:39;;;;;;;196.23;96.68;;;;;;;4.73;86.03;100045.25;5051722;28;20025;-70
2022/11/15 05:59:06;;;;;;;180.27;93.22;;;;;;;4.74;85.98;100049.69;5031700;28;20024;-71
2022/11/15 06:01:31;;;;;;;132.23;66.30;;;;;;;4.82;86.14;100056.56;5048403;28;20033;-69
2022/11/15 06:03:57;;;;;;;113.63;61.03;;;;;;;4.85;86.28;100045.75;5050443;28;20025;-69
2022/11/15 06:06:22;;;;;;;102.75;57.03;;;;;;;5.05;85.88;100047.63;5048670;28;20028;-69
2022/11/15 06:08:47;;;;;;;95.85;56.28;;;;;;;5.19;85.25;100055.31;5051134;28;20106;-69
2022/11/15 06:11:13;;;;;;;86.80;52.05;;;;;;;5.19;85.25;100058.09;5050807;28;20028;-69
2022/11/15 06:13:38;;;;;;;110.90;55.53;;;;;;;5.39;84.88;100057.16;5048778;28;20107;-68
2022/11/15 06:16:04;;;;;;;112.65;62.42;;;;;;;5.37;84.96;100059.38;5043007;28;20496;-68
2022/11/15 06:18:33;;;;;;;114.20;66.88;;;;;;;5.51;84.62;100055.97;5049615;28;20549;-66
2022/11/15 06:21:00;;;;;;;121.13;61.97;;;;;;;5.64;84.38;100058.13;5047724;28;20476;-68
2022/11/15 06:23:25;;;;;;;168.30;76.55;;;;;;;5.69;83.63;100060.03;5049249;28;20059;-70
2022/11/15 06:25:51;;;;;;;176.52;73.07;;;;;;;5.78;83.65;100050.00;5042044;28;20045;-72
2022/11/15 06:28:16;;;;;;;167.43;70.28;;;;;;;5.97;83.02;100049.28;5027148;28;20036;-71
2022/11/15 06:30:44;;;;;;;156.23;69.15;;;;;;;6.10;81.89;100059.78;5027771;28;20028;-69
2022/11/15 06:33:10;;;;;;;135.88;65.35;;;;;;;6.22;81.87;100056.59;5038757;28;20041;-68
2022/11/15 06:35:36;;;;;;;104.45;55.13;;;;;;;6.21;81.23;100062.44;5042875;28;20029;-69
2022/11/15 06:38:04;;;;;;;104.68;59.35;;;;;;;6.09;82.10;100060.06;5046375;28;20040;-67
2022/11/15 06:40:30;;;;;;;100.40;53.60;;;;;;;6.17;82.41;100059.44;5044217;28;20020;-67
2022/11/15 06:42:59;;;;;;;102.22;55.47;;;;;;;6.39;82.05;100058.09;5044614;28;20043;-67
2022/11/15 06:45:25;;;;;;;86.22;47.72;;;;;;;6.48;81.34;100056.34;5046229;28;20059;-67
2022/11/15 06:47:50;;;;;;;84.85;43.15;;;;;;;6.58;81.35;100052.66;5042064;28;20025;-67
2022/11/15 06:50:16;;;;;;;56.97;33.60;;;;;;;6.63;80.78;100052.59;5020168;28;20472;-69
2022/11/15 06:52:41;;;;;;;56.78;34.35;;;;;;;6.64;79.90;100043.13;5024708;28;20514;-69
2022/11/15 06:55:07;;;;;;;60.35;35.13;;;;;;;6.60;80.51;100042.09;5026044;28;20030;-73
2022/11/15 06:57:33;;;;;;;78.10;36.03;;;;;;;6.56;81.40;100055.72;5040149;28;20037;-67
2022/11/15 06:59:58;;;;;;;100.57;45.60;;;;;;;6.54;81.85;100055.19;5039605;28;20024;-70
2022/11/15 07:02:24;;;;;;;95.05;49.30;;;;;;;6.74;81.34;100056.94;5042287;28;20100;-68
2022/11/15 07:04:49;;;;;;;89.82;49.10;;;;;;;6.87;81.42;100047.03;5037093;28;20416;-70
2022/11/15 07:07:15;;;;;;;93.03;48.00;;;;;;;6.95;80.83;100047.53;5015086;28;20025;-71
2022/11/15 07:09:40;;;;;;;79.50;49.05;;;;;;;7.07;80.91;100031.22;5033299;28;20032;-70
2022/11/15 07:12:06;;;;;;;93.63;49.85;;;;;;;7.35;80.73;100047.31;5029190;28;20033;-70
2022/11/15 07:14:31;;;;;;;96.10;47.78;;;;;;;7.48;79.84;100038.22;5038573;28;20040;-71
2022/11/15 07:16:57;;;;;;;84.70;45.97;;;;;;;7.72;79.07;100043.72;5069295;28;20047;-69
2022/11/15 07:19:22;;;;;;;72.47;42.65;;;;;;;7.73;78.92;100042.59;5031456;28;20025;-68
2022/11/15 07:21:48;;;;;;;74.88;41.30;;;;;;;7.82;78.44;100045.50;5019335;28;20052;-70
2022/11/15 07:24:13;;;;;;;75.40;40.85;;;;;;;7.92;79.50;100038.94;5048219;28;20035;-70
2022/11/15 07:26:39;;;;;;;66.70;36.42;;;;;;;7.94;79.00;100044.22;5048567;28;20025;-71
2022/11/15 07:29:04;;;;;;;55.08;30.88;;;;;;;7.99;78.58;100042.16;5048092;28;20025;-70
2022/11/15 07:31:30;;;;;;;56.28;32.72;;;;;;;8.08;78.40;100035.88;5048469;28;20499;-68
2022/11/15 07:33:56;;;;;;;48.40;26.80;;;;;;;8.05;78.40;100039.28;5046556;28;20404;-68
2022/11/15 07:36:21;;;;;;;49.83;30.50;;;;;;;8.11;78.60;100035.31;5047969;28;20041;-73
2022/11/15 07:38:47;;;;;;;47.30;25.65;;;;;;;7.83;77.79;100018.47;5048526;28;20040;-73
2022/11/15 07:41:12;;;;;;;47.67;27.08;;;;;;;7.84;77.99;100036.81;5027114;28;20036;-73
2022/11/15 07:43:38;;;;;;;44.85;25.92;;;;;;;7.97;76.85;100035.25;5016358;28;20029;-71
2022/11/15 07:46:09;;;;;;;52.47;27.80;;;;;;;8.04;77.08;100035.69;5021734;28;20530;-68
2022/11/15 07:48:35;;;;;;;43.42;27.45;;;;;;;8.16;76.67;100032.41;5051875;28;20487;-69
2022/11/15 07:51:00;;;;;;;50.78;27.95;;;;;;;8.22;77.80;100047.09;5048287;28;20052;-69
2022/11/15 07:53:26;;;;;;;50.55;26.83;;;;;;;8.24;76.93;100033.66;5033627;28;20044;-71
2022/11/15 07:55:53;;;;;;;43.40;25.77;;;;;;;8.37;77.04;100032.06;5046278;28;20435;-71
2022/11/15 07:58:19;;;;;;;54.75;28.48;;;;;;;8.42;76.95;100020.81;5048416;28;20108;-72
2022/11/15 08:00:44;;;;;;;46.65;26.42;;;;;;;8.35;76.91;100025.97;5045214;28;20108;-69
2022/11/15 08:03:12;;;;;;;43.88;26.15;;;;;;;8.36;76.43;100022.03;5034104;28;20033;-70
2022/11/15 08:05:39;;;;;;;46.65;25.02;;;;;;;8.52;75.73;100023.44;5050979;28;20064;-69
2022/11/15 08:08:06;;;;;;;51.95;26.52;;;;;;;8.69;76.28;100027.59;5051195;28;20530;-67
2022/11/15 08:10:32;;;;;;;41.97;23.77;;;;;;;8.64;75.02;100022.09;5050863;28;20114;-67
2022/11/15 08:12:59;;;;;;;52.42;26.95;;;;;;;8.98;74.47;100023.66;5049916;28;20047;-67
2022/11/15 08:15:26;;;;;;;37.90;22.25;;;;;;;9.22;73.42;100023.41;5045038;28;20489;-67
2022/11/15 08:17:56;;;;;;;41.53;24.38;;;;;;;9.32;72.83;100021.56;5036078;28;20032;-67
2022/11/15 08:20:21;;;;;;;47.08;24.10;;;;;;;9.48;72.22;100020.09;5031833;28;20826;-66
2022/11/15 08:22:47;;;;;;;45.95;23.00;;;;;;;9.65;71.44;100019.41;5051113;28;20036;-67
2022/11/15 08:25:12;;;;;;;44.80;23.67;;;;;;;9.29;73.01;100017.44;5046024;28;20823;-68
2022/11/15 08:27:38;;;;;;;36.45;22.95;;;;;;;9.22;72.58;100020.63;5048557;28;20032;-69
2022/11/15 08:30:04;;;;;;;42.63;24.40;;;;;;;9.38;73.35;100020.31;5051346;28;20067;-69
2022/11/15 08:32:30;;;;;;;40.25;25.20;;;;;;;9.58;71.71;100023.75;5038581;28;20491;-68
2022/11/15 08:34:56;;;;;;;43.47;24.15;;;;;;;9.82;71.87;100017.91;5033235;28;20029;-71
2022/11/15 08:37:21;;;;;;;41.17;24.77;;;;;;;9.94;71.96;100017.31;5050013;28;20033;-69
2022/11/15 08:39:47;;;;;;;44.63;23.15;;;;;;;10.21;69.57;100016.38;5049965;28;20044;-71
2022/11/15 08:42:14;;;;;;;46.22;27.15;;;;;;;10.15;69.89;100008.44;5029933;28;20083;-70
2022/11/15 08:44:40;;;;;;;45.22;26.10;;;;;;;10.29;69.11;100003.56;5045605;28;20124;-70
2022/11/15 08:47:05;;;;;;;50.17;26.90;;;;;;;10.28;71.20;100001.13;5051195;28;20053;-70
2022/11/15 08:49:31;;;;;;;49.58;28.38;;;;;;;10.12;72.54;100009.88;5031651;28;20036;-69
2022/11/15 08:51:56;;;;;;;50.08;28.00;;;;;;;10.23;72.50;100014.06;5049231;28;20043;-73
2022/11/15 08:54:21;;;;;;;50.50;28.52;;;;;;;10.33;72.24;100001.81;5052983;28;20082;-73
2022/11/15 08:56:47;;;;;;;52.00;29.13;;;;;;;10.63;72.40;99995.72;5053076;28;20079;-73
2022/11/15 08:59:13;;;;;;;51.13;30.95;;;;;;;10.67;72.95;99991.94;5051426;28;20032;-73
2022/11/15 09:01:38;;;;;;;48.78;29.92;;;;;;;10.77;72.29;99979.66;5033969;28;20446;-73
2022/11/15 09:04:04;;;;;;;52.95;31.00;;;;;;;10.97;71.37;99973.78;5052828;28;20032;-73
2022/11/15 09:06:30;;;;;;;52.90;30.90;;;;;;;11.11;71.49;99974.47;5034698;28;20025;-73
2022/11/15 09:08:56;;;;;;;45.92;28.40;;;;;;;11.21;70.57;99967.72;5034478;28;20041;-72
2022/11/15 09:11:23;;;;;;;51.55;32.78;;;;;;;11.14;70.29;99959.00;5052369;28;20126;-72
2022/11/15 09:13:49;;;;;;;47.83;29.10;;;;;;;11.32;70.01;99957.84;5053022;28;20032;-73
2022/11/15 09:16:15;;;;;;;49.78;30.17;;;;;;;11.54;70.18;99947.66;5050709;28;20368;-72
2022/11/15 09:18:41;;;;;;;53.22;31.38;;;;;;;11.52;69.47;99944.34;5033563;28;20037;-72
2022/11/15 09:21:06;;;;;;;49.85;32.20;;;;;;;11.59;70.47;99938.25;5047913;28;20029;-69
2022/11/15 09:23:32;;;;;;;55.33;30.42;;;;;;;11.62;69.77;99931.97;5052735;28;20502;-69
2022/11/15 09:26:00;;;;;;;56.30;31.40;;;;;;;11.59;69.88;99925.09;5052434;28;20028;-69
2022/11/15 09:28:25;;;;;;;57.42;31.52;;;;;;;11.70;70.11;99922.75;5034113;28;20036;-69
2022/11/15 09:30:51;;;;;;;58.17;33.22;;;;;;;11.79;69.46;99919.94;5052607;28;20029;-69
2022/11/15 09:33:17;;;;;;;55.83;32.95;;;;;;;12.18;69.06;99911.63;5052198;28;20035;-69
2022/11/15 09:35:42;;;;;;;50.10;30.40;;;;;;;12.32;68.74;99914.22;5050261;28;20029;-72
2022/11/15 09:38:08;;;;;;;56.85;31.00;;;;;;;12.24;67.35;99915.88;5052247;28;20033;-69
2022/11/15 09:40:37;;;;;;;47.85;29.55;;;;;;;11.94;67.94;99908.22;5052471;28;20035;-70
2022/11/15 09:43:28;;;;;;;51.60;30.75;;;;;;;11.81;69.44;99914.81;5050858;28;20032;-69
2022/11/15 09:46:06;;;;;;;40.97;27.77;;;;;;;12.45;67.04;99912.34;5044777;28;20500;-69
2022/11/15 09:48:37;;;;;;;51.80;31.67;;;;;;;12.60;67.80;99908.94;5041743;28;20052;-69
2022/11/15 09:51:05;;;;;;;56.22;32.20;;;;;;;12.28;68.98;99902.84;5032504;28;20025;-69
2022/11/15 09:53:47;;;;;;;52.42;31.70;;;;;;;12.44;68.38;99900.31;5027749;28;20040;-69
2022/11/15 09:56:24;;;;;;;55.38;31.27;;;;;;;12.39;69.63;99899.69;5046503;28;20036;-69
2022/11/15 09:59:14;;;;;;;48.72;30.80;;;;;;;12.61;68.25;99887.34;5023689;28;20032;-70
2022/11/15 10:02:07;;;;;;;50.67;30.80;;;;;;;12.32;67.55;99883.38;5046012;28;20030;-69
2022/11/15 10:04:33;;;;;;;56.42;33.75;;;;;;;12.38;68.61;99881.22;5042173;28;20100;-70
2022/11/15 10:07:13;;;;;;;59.55;33.00;;;;;;;12.12;68.87;99874.53;5046491;28;20036;-69
2022/11/15 10:09:52;;;;;;;48.40;31.10;;;;;;;11.93;68.98;99877.69;5042057;28;20025;-70
2022/11/15 10:12:19;;;;;;;52.97;32.55;;;;;;;11.80;70.07;99873.94;5036031;28;20041;-70
2022/11/15 10:14:51;;;;;;;49.90;32.47;;;;;;;11.66;71.06;99874.16;5032190;28;20491;-70
2022/11/15 10:17:28;;;;;;;53.80;32.42;;;;;;;11.65;72.17;99864.91;5020347;28;20048;-68
2022/11/15 10:20:09;;;;;;;53.65;33.58;;;;;;;11.76;71.73;99861.75;5046598;28;20037;-70
2022/11/15 10:22:40;;;;;;;;;;;;;;;11.76;70.66;99856.16;5022495;28;20029;-70
2022/11/15 10:25:09;;;;;;;43.20;29.35;;;;;;;11.77;69.79;99857.78;5027712;28;19919;-70
2022/11/15 10:27:34;;;;;;;49.90;32.88;;;;;;;11.66;70.77;99846.94;5041649;28;20029;-70
2022/11/15 10:30:00;;;;;;;50.25;32.38;;;;;;;11.72;70.67;99850.38;5047049;28;20037;-71
2022/11/15 10:32:26;;;;;;;45.20;29.75;;;;;;;11.67;70.67;99847.78;5047329;28;20029;-69
2022/11/15 10:34:52;;;;;;;46.28;31.70;;;;;;;11.59;70.42;99851.41;5032773;28;20458;-69
2022/11/15 10:37:31;;;;;;;49.50;30.88;;;;;;;11.85;68.97;99834.53;5040852;28;20035;-70
2022/11/15 10:40:19;;;;;;;46.85;28.48;;;;;;;11.74;69.27;99827.63;5041631;28;22022;-67
2022/11/15 10:42:45;;;;;;;47.55;30.00;;;;;;;11.85;69.62;99826.13;5047020;28;20032;-67
2022/11/15 10:45:38;;;;;;;50.85;31.40;;;;;;;11.84;70.43;99818.88;5017848;28;20622;-67
2022/11/15 10:48:29;;;;;;;56.30;31.27;;;;;;;12.08;69.39;99817.50;5035397;28;20069;-66
2022/11/15 10:50:55;;;;;;;45.00;31.40;;;;;;;12.39;67.35;99810.72;5034773;28;20036;-68
2022/11/15 10:53:26;;;;;;;43.55;28.67;;;;;;;12.88;66.35;99815.84;5046047;28;20017;-70
2022/11/15 10:55:53;;;;;;;;;;;;;;;12.99;63.68;99810.63;5023620;28;20502;-70
2022/11/15 10:58:41;;;;;;;47.95;29.80;;;;;;;13.13;63.68;99810.34;5037417;28;19990;-70
2022/11/15 11:01:18;;;;;;;52.28;31.38;;;;;;;13.27;64.12;99801.66;5031657;28;20063;-70
2022/11/15 11:03:58;;;;;;;43.30;28.27;;;;;;;13.50;63.39;99792.81;5047221;28;20505;-69
2022/11/15 11:06:24;;;;;;;41.95;27.90;;;;;;;13.48;62.41;99786.72;5013902;28;20037;-67
2022/11/15 11:08:55;;;;;;;43.20;27.08;;;;;;;13.79;62.67;99774.16;5045125;28;20044;-67
2022/11/15 11:11:21;;;;;;;43.47;29.23;;;;;;;13.92;61.50;99772.16;5025040;28;20484;-67
2022/11/15 11:13:46;;;;;;;56.00;31.95;;;;;;;13.68;64.14;99770.16;5039963;28;20040;-67
2022/11/15 11:16:14;;;;;;;47.22;31.95;;;;;;;13.66;64.34;99775.31;5042442;28;20106;-66
2022/11/15 11:19:08;;;;;;;56.92;32.13;;;;;;;13.65;63.39;99776.47;5039014;28;20025;-72
2022/11/15 11:21:54;;;;;;;50.50;32.92;;;;;;;13.48;64.11;99767.06;5022523;28;20028;-73
2022/11/15 11:24:44;;;;;;;48.97;31.98;;;;;;;13.79;63.44;99762.91;5041881;28;20075;-73
2022/11/15 11:27:28;;;;;;;;;;;;;;;13.63;63.40;99762.78;5052694;28;20033;-72
2022/11/15 11:30:06;;;;;;;55.08;32.13;;;;;;;13.46;63.49;99759.00;5035658;28;20383;-71
2022/11/15 11:32:50;;;;;;;55.05;32.65;;;;;;;13.19;64.03;99749.16;5034150;28;20112;-74
2022/11/15 11:35:49;;;;;;;49.20;32.85;;;;;;;13.19;64.13;99744.34;5033643;28;20518;-68
2022/11/15 11:38:39;;;;;;;54.30;32.55;;;;;;;13.15;64.34;99743.41;5048046;28;20025;-75